createdAt,value
2022-11-09T00:01:39.078Z,100137.88
2022-11-09T00:06:31.852Z,99865.88
2022-11-09T00:11:25.378Z,100106.75
2022-11-09T00:16:19.812Z,99877.91
2022-11-09T00:21:20.391Z,100163.09
2022-11-09T00:26:15.293Z,99902.38
2022-11-09T00:31:11.979Z,100069.50
2022-11-09T00:36:10.418Z,100038.66
2022-11-09T00:41:06.462Z,100098.97
2022-11-09T00:45:58.241Z,100088.84
2022-11-09T00:50:52.173Z,99944.47
2022-11-09T00:55:43.939Z,99992.78
2022-11-09T01:00:35.733Z,99643.75
2022-11-09T01:05:27.555Z,100166.72
2022-11-09T01:10:19.716Z,100161.25
2022-11-09T01:15:11.634Z,99932.66
2022-11-09T01:20:04.241Z,100012.91
2022-11-09T01:24:55.951Z,100062.91
2022-11-09T01:29:49.124Z,99935.06
2022-11-09T01:34:40.809Z,100159.13
2022-11-09T01:39:32.773Z,100009.72
2022-11-09T01:44:28.009Z,100178.56
2022-11-09T01:49:22.198Z,100164.19
2022-11-09T01:54:31.644Z,100096.53
2022-11-09T01:59:29.555Z,100105.09
2022-11-09T02:04:27.785Z,99934.66
2022-11-09T02:09:25.525Z,100177.47
2022-11-09T02:14:18.954Z,100092.06
2022-11-09T02:19:10.756Z,100065.25
2022-11-09T02:24:02.770Z,100100.03
2022-11-09T02:28:56.439Z,100179.59
2022-11-09T02:33:51.652Z,100080.75
2022-11-09T02:38:43.435Z,100126.38
2022-11-09T02:43:36.868Z,99951.13
2022-11-09T02:48:29.183Z,100125.41
2022-11-09T02:53:22.533Z,100019.69
2022-11-09T02:58:14.216Z,99929.91
2022-11-09T03:03:07.106Z,99741.13
2022-11-09T03:08:02.254Z,100180.13
2022-11-09T03:12:58.917Z,99795.81
2022-11-09T03:17:50.711Z,100039.66
2022-11-09T03:22:45.119Z,100000.31
2022-11-09T03:27:37.470Z,100187.38
2022-11-09T03:32:30.242Z,100014.50
2022-11-09T03:37:22.037Z,99996.97
2022-11-09T03:42:14.613Z,100111.22
2022-11-09T03:47:06.434Z,100113.00
2022-11-09T03:51:58.122Z,100187.44
2022-11-09T03:56:49.821Z,100170.06
2022-11-09T04:01:41.549Z,100134.53
2022-11-09T04:06:33.322Z,99996.16
2022-11-09T04:11:25.758Z,100057.28
2022-11-09T04:16:17.510Z,99935.22
2022-11-09T04:21:09.302Z,99938.16
2022-11-09T04:26:00.940Z,100067.13
2022-11-09T04:30:52.884Z,99930.91
2022-11-09T04:35:44.961Z,100201.72
2022-11-09T04:40:36.814Z,99890.97
2022-11-09T04:45:29.060Z,99990.81
2022-11-09T04:50:20.828Z,100025.53
2022-11-09T04:55:16.434Z,99960.81
2022-11-09T05:00:08.913Z,100199.13
2022-11-09T05:05:00.557Z,99909.94
2022-11-09T05:09:52.225Z,99955.13
2022-11-09T05:14:43.916Z,99903.53
2022-11-09T05:19:35.697Z,99980.13
2022-11-09T05:24:27.372Z,100059.13
2022-11-09T05:29:19.043Z,99943.78
2022-11-09T05:34:12.894Z,100038.75
2022-11-09T05:39:04.555Z,100047.19
2022-11-09T05:43:56.255Z,99949.63
2022-11-09T05:48:48.000Z,100206.31
2022-11-09T05:53:43.714Z,99925.38
2022-11-09T05:58:38.944Z,100215.47
2022-11-09T06:03:30.806Z,99968.34
2022-11-09T06:08:22.480Z,100075.19
2022-11-09T06:13:14.086Z,100210.06
2022-11-09T06:18:05.838Z,100113.63
2022-11-09T06:23:03.060Z,100178.75
2022-11-09T06:27:55.772Z,100115.16
2022-11-09T06:32:47.460Z,99995.94
2022-11-09T06:37:39.114Z,100259.47
2022-11-09T06:42:30.834Z,100166.78
2022-11-09T06:47:22.828Z,99993.81
2022-11-09T06:52:14.443Z,100040.88
2022-11-09T06:57:06.164Z,99986.34
2022-11-09T07:02:01.446Z,100260.34
2022-11-09T07:06:53.515Z,100197.47
2022-11-09T07:11:45.224Z,100156.16
2022-11-09T07:16:37.554Z,100140.84
2022-11-09T07:21:29.240Z,100058.25
2022-11-09T07:26:21.361Z,100152.16
2022-11-09T07:31:13.048Z,100192.81
2022-11-09T07:36:05.652Z,100126.44
2022-11-09T07:41:01.407Z,100264.41
2022-11-09T07:45:53.236Z,100280.41
2022-11-09T07:50:45.291Z,100024.66
2022-11-09T07:55:37.983Z,100310.78
2022-11-09T08:00:31.804Z,100254.19
2022-11-09T08:05:23.717Z,99849.88
2022-11-09T08:10:15.670Z,100008.75
2022-11-09T08:15:07.739Z,99909.56
2022-11-09T08:19:59.378Z,100330.28
2022-11-09T08:24:51.338Z,100157.09
2022-11-09T08:29:43.875Z,100177.00
2022-11-09T08:34:35.551Z,100075.34
2022-11-09T08:39:27.228Z,100087.00
2022-11-09T08:44:19.365Z,100012.19
2022-11-09T08:49:11.050Z,100329.88
2022-11-09T08:54:04.017Z,100211.69
2022-11-09T08:58:55.692Z,100155.78
2022-11-09T09:03:48.209Z,100154.72
2022-11-09T09:08:39.871Z,100350.03
2022-11-09T09:13:32.238Z,100239.28
2022-11-09T09:18:24.546Z,99977.84
2022-11-09T09:23:17.096Z,99894.91
2022-11-09T09:28:08.728Z,100009.91
2022-11-09T09:33:01.357Z,100361.31
2022-11-09T09:37:53.270Z,100263.75
2022-11-09T09:42:45.212Z,100259.66
2022-11-09T09:48:06.377Z,100380.66
2022-11-09T09:53:22.681Z,100382.47
2022-11-09T09:58:19.231Z,100397.53
2022-11-09T10:03:17.351Z,100400.50
2022-11-09T10:08:30.160Z,100071.91
2022-11-09T10:13:57.460Z,100366.09
2022-11-09T10:19:16.446Z,100405.59
2022-11-09T10:24:31.158Z,100211.47
2022-11-09T10:29:28.132Z,100219.72
2022-11-09T10:34:36.370Z,100194.38
2022-11-09T10:39:39.067Z,100113.09
2022-11-09T10:44:49.886Z,100225.88
2022-11-09T10:50:32.552Z,100284.09
2022-11-09T10:55:57.055Z,100418.56
2022-11-09T11:01:16.459Z,100308.72
2022-11-09T11:06:33.716Z,100298.28
2022-11-09T11:11:43.983Z,100258.84
2022-11-09T11:16:56.146Z,100283.78
2022-11-09T11:22:13.049Z,100228.25
2022-11-09T11:27:56.423Z,100427.56
2022-11-09T11:33:14.848Z,100124.75
2022-11-09T11:38:56.116Z,100428.38
2022-11-09T11:44:34.949Z,100430.38
2022-11-09T11:49:59.309Z,100434.47
2022-11-09T11:55:16.043Z,100434.78
2022-11-09T12:00:26.548Z,100153.22
2022-11-09T12:05:52.473Z,100429.03
2022-11-09T12:11:12.087Z,100262.38
2022-11-09T12:16:40.454Z,100283.06
2022-11-09T12:22:16.828Z,100429.75
2022-11-09T12:27:54.062Z,100246.75
2022-11-09T12:33:13.293Z,100182.66
2022-11-09T12:38:29.795Z,100189.22
2022-11-09T12:43:57.956Z,100141.25
2022-11-09T12:49:36.081Z,100134.03
2022-11-09T12:54:49.766Z,100189.63
2022-11-09T13:00:00.945Z,100441.03
2022-11-09T13:05:48.617Z,100355.47
2022-11-09T13:11:19.088Z,100165.06
2022-11-09T13:16:35.626Z,100180.72
2022-11-09T13:21:46.058Z,100315.22
2022-11-09T13:27:04.476Z,100293.53
2022-11-09T13:32:20.871Z,100458.41
2022-11-09T13:37:40.720Z,100455.50
2022-11-09T13:43:17.132Z,100145.53
2022-11-09T13:48:34.786Z,100466.13
2022-11-09T13:53:59.888Z,100326.97
2022-11-09T13:59:33.968Z,100203.66
2022-11-09T14:04:45.012Z,100206.56
2022-11-09T14:10:35.321Z,100242.34
2022-11-09T14:15:56.716Z,100301.63
2022-11-09T14:21:27.808Z,100190.59
2022-11-09T14:26:38.326Z,100324.97
2022-11-09T14:31:48.936Z,100308.41
2022-11-09T14:37:04.567Z,100316.19
2022-11-09T14:42:23.241Z,100051.47
2022-11-09T14:47:37.896Z,100323.97
2022-11-09T14:52:50.452Z,100400.25
2022-11-09T14:58:02.532Z,100320.81
2022-11-09T15:03:22.796Z,100537.09
2022-11-09T15:08:34.439Z,100256.69
2022-11-09T15:13:44.677Z,100501.81
2022-11-09T15:18:55.185Z,100318.47
2022-11-09T15:24:08.828Z,100566.66
2022-11-09T15:29:31.557Z,100564.28
2022-11-09T15:34:52.607Z,100245.38
2022-11-09T15:40:06.653Z,100529.91
2022-11-09T15:45:19.228Z,100251.41
2022-11-09T15:50:29.276Z,100570.44
2022-11-09T15:55:39.830Z,100284.91
2022-11-09T16:00:50.462Z,100570.88
2022-11-09T16:06:01.486Z,100447.53
2022-11-09T16:11:12.492Z,100399.75
2022-11-09T16:16:23.083Z,100433.38
2022-11-09T16:21:34.913Z,100476.72
2022-11-09T16:26:46.047Z,100552.88
2022-11-09T16:31:57.322Z,100279.72
2022-11-09T16:37:07.784Z,100373.63
2022-11-09T16:42:19.372Z,100452.94
2022-11-09T16:47:29.733Z,100454.81
2022-11-09T16:52:40.025Z,100481.38
2022-11-09T16:57:50.361Z,100480.66
2022-11-09T17:03:04.642Z,100631.38
2022-11-09T17:08:15.069Z,100548.34
2022-11-09T17:13:25.815Z,100688.47
2022-11-09T17:18:38.548Z,100536.50
2022-11-09T17:23:49.232Z,100729.53
2022-11-09T17:28:59.518Z,100554.47
2022-11-09T17:34:12.252Z,100767.06
2022-11-09T17:39:22.839Z,100489.06
2022-11-09T17:44:35.714Z,100391.06
2022-11-09T17:49:45.812Z,100741.91
2022-11-09T17:54:56.329Z,100412.72
2022-11-09T18:00:07.893Z,100678.09
2022-11-09T18:05:18.083Z,100704.19
2022-11-09T18:10:28.595Z,100692.66
2022-11-09T18:15:39.971Z,100702.00
2022-11-09T18:20:50.961Z,100563.53
2022-11-09T18:26:01.627Z,100673.78
2022-11-09T18:31:13.739Z,100844.34
2022-11-09T18:36:24.434Z,100577.75
2022-11-09T18:41:34.772Z,100676.59
2022-11-09T18:46:45.891Z,100855.81
2022-11-09T18:51:57.155Z,100719.88
2022-11-09T18:57:07.918Z,100715.47
2022-11-09T19:02:18.559Z,100843.59
2022-11-09T19:07:29.348Z,100671.03
2022-11-09T19:12:39.888Z,100801.56
2022-11-09T19:17:50.464Z,100707.38
2022-11-09T19:23:00.911Z,100698.47
2022-11-09T19:28:11.423Z,100696.09
2022-11-09T19:33:22.540Z,100791.16
2022-11-09T19:38:33.090Z,100678.38
2022-11-09T19:43:43.363Z,100913.34
2022-11-09T19:48:53.890Z,100888.19
2022-11-09T19:54:05.977Z,100859.41
2022-11-09T19:59:17.067Z,100729.59
2022-11-09T20:04:28.634Z,100681.44
2022-11-09T20:09:38.924Z,100878.00
2022-11-09T20:14:49.414Z,100721.97
2022-11-09T20:20:00.066Z,100983.19
2022-11-09T20:25:10.531Z,100669.69
2022-11-09T20:30:21.082Z,100870.78
2022-11-09T20:35:31.625Z,100822.13
2022-11-09T20:40:42.360Z,101023.56
2022-11-09T20:45:53.558Z,100981.19
2022-11-09T20:51:09.165Z,100846.16
2022-11-09T20:56:20.773Z,100744.31
2022-11-09T21:01:32.051Z,101040.31
2022-11-09T21:06:42.561Z,100935.94
2022-11-09T21:12:11.704Z,100977.91
2022-11-09T21:17:22.115Z,101056.84
2022-11-09T21:22:51.610Z,100622.72
2022-11-09T21:28:20.913Z,100871.97
2022-11-09T21:33:31.467Z,100958.41
2022-11-09T21:38:42.187Z,101076.09
2022-11-09T21:43:57.329Z,101077.47
2022-11-09T21:49:09.372Z,101010.84
2022-11-09T21:54:20.550Z,100919.00
2022-11-09T21:59:30.889Z,100929.25
2022-11-09T22:04:42.522Z,101025.75
2022-11-09T22:15:42.117Z,100942.53
2022-11-09T22:20:55.633Z,101028.63
2022-11-09T22:26:06.263Z,101018.94
2022-11-09T22:31:16.560Z,101084.34
2022-11-09T22:36:27.000Z,100757.59
2022-11-09T22:41:37.448Z,100978.13
2022-11-09T22:46:49.165Z,101065.16
2022-11-09T22:51:59.274Z,100833.41
2022-11-09T22:57:10.994Z,101057.97
2022-11-09T23:02:21.508Z,101093.91
2022-11-09T23:07:31.849Z,101064.78
2022-11-09T23:12:42.272Z,100812.06
2022-11-09T23:18:12.208Z,100903.44
2022-11-09T23:23:23.027Z,100879.78
2022-11-09T23:28:34.513Z,101177.34
2022-11-09T23:33:44.861Z,101143.31
2022-11-09T23:38:55.223Z,101166.50
2022-11-09T23:44:05.320Z,101096.50
2022-11-09T23:49:15.898Z,101042.25
2022-11-09T23:54:26.658Z,101083.09
2022-11-09T23:59:36.807Z,101059.78
